Amunt
Inicio > meteoXarxa
Fes-te'n soci

METEOXARXA

Castellfort
Ubicació
Comarca els Ports
Altitud (msnm) 1181
Posició geogràfica 40° 30' 15.12" N, 00° 11' 20.04" W
Model Instrumentació oficial
Presa de dades
Font de les dades AEMET
Estadístiques. Resum
Data Temperatura (ºC) Humitat (%) Pressió (hPa) Vent (km/h) Precipit. (mm)
Mínima Mitjana Màxima Mínima Mitjana Màxima Mínima Mitjana Màxima Predom. Mitjana Ràfega màxima Total Dies de pluja
Mínima Mitjana Màxima Mínima Mitjana Màxima
Últimes dades diàries
23-03-2017 -0,3     3,6     7,4 0,0  
22-03-2017 4,5     7,9     11,4 0,0  
21-03-2017 5,3     10,3     15,4 0,0  
20-03-2017 7,7     12,7     17,7 0,0  
19-03-2017 8,3     12,8     17,3 0,0  
18-03-2017 5,8     11,8     17,8 0,0  
17-03-2017 4,8     9,9     15,0 0,0  
16-03-2017 4,4     9,1     13,9 0,0  
15-03-2017 5,4     9,0     12,5 0,0  
14-03-2017 3,5     7,8     12,1 0,0  
13-03-2017 -0,5     2,0     4,6 22,5  
12-03-2017 1,5     8,3     15,2 2,8  
11-03-2017 13,8     17,6     21,4 0,0  
10-03-2017 14,1     18,1     22,1 0,0  
09-03-2017 12,6     17,4     22,2 0,0  
08-03-2017 6,0     10,9     15,9 0,0  
07-03-2017 4,7     8,9     13,1 0,0  
06-03-2017 5,9     9,8     13,6 0,0  
05-03-2017 2,0     6,6     11,2 0,0  
03-03-2017 0,8     4,8     8,9 13,8  
02-03-2017 6,0     10,2     14,3 0,0  
01-03-2017 1,3     7,1     13,0 0,0  
28-02-2017 1,5     6,1     10,6 0,0  
27-02-2017 6,0     9,9     13,9  
26-02-2017 6,0     10,1     14,1 0,0  
25-02-2017 -0,3     6,0     12,3 0,0  
24-02-2017 0,7     5,2     9,7 1,5  
23-02-2017 8,8     11,5     14,2 0,0  
22-02-2017 5,7     10,2     14,7 0,0  
20-02-2017 1,5     6,0     10,5 0,0  
19-02-2017 2,0     5,0     8,0 0,0  
18-02-2017 3,0     7,1     11,1 0,0  
Dades del mes en curs (actualitzades fins l'últim dia disponible)
03/2017 -0,5 5,3 14,1 9,8 4,6 14,4 22,2   39,1  
Últimes dades mensuals
02/2017 -1,3 2,8 8,8 6,3 2,6 9,8 14,7 21,0 8
01/2017 -8,8 0,1 6,2 3,2 -3,0 6,2 15,5 50,0 6
12/2016 -0,3 3,5 7,4 6,3 1,5 9,1 15,8 82,7 6
11/2016 0,1 4,8 12,2 7,9 5,3 10,9 19,7 100,1 10
10/2016 3,3 10,0 14,2 13,8 9,2 17,5 23,7 26,7 16
09/2016 7,8 13,0 23,2 17,3 14,1 21,6 32,2 13,3 6
08/2016 7,6 15,1 20,3 20,5 19,8 25,9 29,3 13,3 5
07/2016 6,9 15,6 23,0 20,8 19,1 26,0 31,5 14,7 5
06/2016 6,3 12,3 17,9 17,3 14,9 22,3 28,3 72,3 8
05/2016 -0,5 7,4 14,2 11,9 8,3 16,4 23,2 50,3 7
04/2016 -0,3 4,4 9,1 8,5 6,4 12,6 17,9 35,4 10
03/2016 -2,4 1,9 8,1 5,3 2,1 8,7 18,5 30,8 9
02/2016 -1,5 2,0 5,6 6,3 6,6 10,6 13,9 0,3 1
Dades de l'any en curs (actualitzades fins l'últim dia disponible)
2017 -8,8 2,5 14,1 6,1 -3,0 9,7 22,2   110,1  
Últimes dades anuals
2012 455,8
2013 -6,0 7,4 12,6 11,4 13,0 15,4 28,3 113,0 441,1 88